sensor_id;sensor_type;location;lat;lon;timestamp;P1;durP1;ratioP1;P2;durP2;ratioP2
9413;SDS011;4746;35.664;139.738;2024-03-25T00:00:04;46.03;;;41.03;;
9413;SDS011;4746;35.664;139.738;2024-03-25T00:02:37;48.33;;;40.73;;
9413;SDS011;4746;35.664;139.738;2024-03-25T00:05:06;43.73;;;38.93;;
9413;SDS011;4746;35.664;139.738;2024-03-25T00:07:38;42.43;;;37.77;;
9413;SDS011;4746;35.664;139.738;2024-03-25T00:10:06;45.47;;;40.83;;
9413;SDS011;4746;35.664;139.738;2024-03-25T00:12:35;44.20;;;39.57;;
9413;SDS011;4746;35.664;139.738;2024-03-25T00:15:03;40.60;;;36.43;;
9413;SDS011;4746;35.664;139.738;2024-03-25T00:17:31;41.40;;;37.00;;
9413;SDS011;4746;35.664;139.738;2024-03-25T00:19:58;39.77;;;35.67;;
9413;SDS011;4746;35.664;139.738;2024-03-25T00:22:26;43.07;;;36.77;;
9413;SDS011;4746;35.664;139.738;2024-03-25T00:24:53;38.63;;;34.63;;
9413;SDS011;4746;35.664;139.738;2024-03-25T00:27:21;39.43;;;35.53;;
9413;SDS011;4746;35.664;139.738;2024-03-25T00:29:48;36.63;;;32.90;;
9413;SDS011;4746;35.664;139.738;2024-03-25T00:32:16;37.30;;;33.13;;
9413;SDS011;4746;35.664;139.738;2024-03-25T00:34:43;35.33;;;31.80;;
9413;SDS011;4746;35.664;139.738;2024-03-25T00:37:10;35.27;;;31.57;;
9413;SDS011;4746;35.664;139.738;2024-03-25T00:39:38;36.27;;;32.63;;
9413;SDS011;4746;35.664;139.738;2024-03-25T00:42:06;37.67;;;33.73;;
9413;SDS011;4746;35.664;139.738;2024-03-25T00:44:33;40.80;;;36.50;;
9413;SDS011;4746;35.664;139.738;2024-03-25T00:47:01;39.20;;;35.27;;
9413;SDS011;4746;35.664;139.738;2024-03-25T00:49:29;37.43;;;33.63;;
9413;SDS011;4746;35.664;139.738;2024-03-25T00:52:01;39.20;;;35.40;;
9413;SDS011;4746;35.664;139.738;2024-03-25T00:54:29;39.03;;;34.90;;
9413;SDS011;4746;35.664;139.738;2024-03-25T00:56:56;37.30;;;33.30;;
9413;SDS011;4746;35.664;139.738;2024-03-25T00:59:24;39.63;;;35.43;;
9413;SDS011;4746;35.664;139.738;2024-03-25T01:01:52;39.43;;;35.23;;
9413;SDS011;4746;35.664;139.738;2024-03-25T01:04:19;38.97;;;35.07;;
9413;SDS011;4746;35.664;139.738;2024-03-25T01:06:47;37.63;;;33.63;;
9413;SDS011;4746;35.664;139.738;2024-03-25T01:09:14;39.40;;;35.47;;
9413;SDS011;4746;35.664;139.738;2024-03-25T01:11:42;37.00;;;33.40;;
9413;SDS011;4746;35.664;139.738;2024-03-25T01:14:09;37.40;;;33.60;;
9413;SDS011;4746;35.664;139.738;2024-03-25T01:16:37;37.90;;;33.97;;
9413;SDS011;4746;35.664;139.738;2024-03-25T01:19:04;37.87;;;34.10;;
9413;SDS011;4746;35.664;139.738;2024-03-25T01:21:32;37.30;;;33.53;;
9413;SDS011;4746;35.664;139.738;2024-03-25T01:24:00;36.50;;;32.73;;
9413;SDS011;4746;35.664;139.738;2024-03-25T01:26:27;39.30;;;35.40;;
9413;SDS011;4746;35.664;139.738;2024-03-25T01:28:55;34.93;;;31.43;;
9413;SDS011;4746;35.664;139.738;2024-03-25T01:31:25;32.10;;;28.83;;
9413;SDS011;4746;35.664;139.738;2024-03-25T01:33:52;31.27;;;28.17;;
9413;SDS011;4746;35.664;139.738;2024-03-25T01:36:20;32.50;;;29.27;;
9413;SDS011;4746;35.664;139.738;2024-03-25T01:38:48;32.33;;;29.20;;
9413;SDS011;4746;35.664;139.738;2024-03-25T01:41:19;33.43;;;30.17;;
9413;SDS011;4746;35.664;139.738;2024-03-25T01:43:49;31.00;;;27.90;;
9413;SDS011;4746;35.664;139.738;2024-03-25T01:46:16;32.17;;;29.17;;
9413;SDS011;4746;35.664;139.738;2024-03-25T01:48:47;33.70;;;30.47;;
9413;SDS011;4746;35.664;139.738;2024-03-25T01:51:18;31.90;;;28.80;;
9413;SDS011;4746;35.664;139.738;2024-03-25T01:53:49;33.00;;;29.50;;
9413;SDS011;4746;35.664;139.738;2024-03-25T01:56:19;33.90;;;30.60;;
9413;SDS011;4746;35.664;139.738;2024-03-25T01:58:48;35.47;;;31.77;;
9413;SDS011;4746;35.664;139.738;2024-03-25T02:01:18;32.17;;;29.00;;
9413;SDS011;4746;35.664;139.738;2024-03-25T02:03:46;35.07;;;31.43;;
9413;SDS011;4746;35.664;139.738;2024-03-25T02:06:16;34.40;;;31.07;;
9413;SDS011;4746;35.664;139.738;2024-03-25T02:08:44;35.27;;;31.77;;
9413;SDS011;4746;35.664;139.738;2024-03-25T02:11:14;34.80;;;31.30;;
9413;SDS011;4746;35.664;139.738;2024-03-25T02:13:44;33.30;;;30.10;;
9413;SDS011;4746;35.664;139.738;2024-03-25T02:16:12;33.97;;;30.67;;
9413;SDS011;4746;35.664;139.738;2024-03-25T02:18:39;31.17;;;28.17;;
9413;SDS011;4746;35.664;139.738;2024-03-25T02:21:07;31.57;;;28.47;;
9413;SDS011;4746;35.664;139.738;2024-03-25T02:23:34;28.53;;;25.80;;
9413;SDS011;4746;35.664;139.738;2024-03-25T02:26:05;29.73;;;26.80;;
9413;SDS011;4746;35.664;139.738;2024-03-25T02:28:32;29.67;;;26.77;;
9413;SDS011;4746;35.664;139.738;2024-03-25T02:31:00;30.00;;;27.20;;
9413;SDS011;4746;35.664;139.738;2024-03-25T02:33:33;30.27;;;27.37;;
9413;SDS011;4746;35.664;139.738;2024-03-25T02:36:00;34.70;;;31.43;;
9413;SDS011;4746;35.664;139.738;2024-03-25T02:38:28;33.90;;;30.60;;
9413;SDS011;4746;35.664;139.738;2024-03-25T02:40:57;34.33;;;31.00;;
9413;SDS011;4746;35.664;139.738;2024-03-25T02:43:26;31.27;;;28.17;;
9413;SDS011;4746;35.664;139.738;2024-03-25T02:45:54;29.30;;;26.60;;
9413;SDS011;4746;35.664;139.738;2024-03-25T02:48:21;30.77;;;27.87;;
9413;SDS011;4746;35.664;139.738;2024-03-25T02:50:49;29.90;;;27.10;;
9413;SDS011;4746;35.664;139.738;2024-03-25T02:53:17;30.93;;;28.03;;
9413;SDS011;4746;35.664;139.738;2024-03-25T02:55:44;32.60;;;29.50;;
9413;SDS011;4746;35.664;139.738;2024-03-25T02:58:18;32.57;;;29.40;;
9413;SDS011;4746;35.664;139.738;2024-03-25T03:00:45;29.73;;;26.83;;
9413;SDS011;4746;35.664;139.738;2024-03-25T03:03:13;31.73;;;28.53;;
9413;SDS011;4746;35.664;139.738;2024-03-25T03:05:40;33.27;;;29.97;;
9413;SDS011;4746;35.664;139.738;2024-03-25T03:08:09;31.67;;;28.60;;
9413;SDS011;4746;35.664;139.738;2024-03-25T03:10:36;30.60;;;27.53;;
9413;SDS011;4746;35.664;139.738;2024-03-25T03:13:04;28.60;;;25.80;;
9413;SDS011;4746;35.664;139.738;2024-03-25T03:15:31;33.07;;;29.83;;
9413;SDS011;4746;35.664;139.738;2024-03-25T03:17:59;31.20;;;28.10;;
9413;SDS011;4746;35.664;139.738;2024-03-25T03:20:27;33.67;;;30.50;;
9413;SDS011;4746;35.664;139.738;2024-03-25T03:22:54;34.03;;;30.63;;
9413;SDS011;4746;35.664;139.738;2024-03-25T03:25:25;34.70;;;31.20;;
9413;SDS011;4746;35.664;139.738;2024-03-25T03:27:57;36.50;;;33.00;;
9413;SDS011;4746;35.664;139.738;2024-03-25T03:30:25;33.80;;;30.37;;
9413;SDS011;4746;35.664;139.738;2024-03-25T03:32:53;32.57;;;29.17;;
9413;SDS011;4746;35.664;139.738;2024-03-25T03:35:21;33.50;;;30.27;;
9413;SDS011;4746;35.664;139.738;2024-03-25T03:37:48;31.67;;;28.60;;
9413;SDS011;4746;35.664;139.738;2024-03-25T03:40:16;31.93;;;28.83;;
9413;SDS011;4746;35.664;139.738;2024-03-25T03:42:43;30.30;;;27.30;;
9413;SDS011;4746;35.664;139.738;2024-03-25T03:45:11;29.27;;;26.40;;
9413;SDS011;4746;35.664;139.738;2024-03-25T03:47:38;31.20;;;28.20;;
9413;SDS011;4746;35.664;139.738;2024-03-25T03:50:09;30.43;;;27.37;;
9413;SDS011;4746;35.664;139.738;2024-03-25T03:52:36;32.20;;;28.93;;
9413;SDS011;4746;35.664;139.738;2024-03-25T03:55:04;29.93;;;27.03;;
9413;SDS011;4746;35.664;139.738;2024-03-25T03:57:32;29.57;;;26.73;;
9413;SDS011;4746;35.664;139.738;2024-03-25T04:00:00;29.27;;;26.47;;
9413;SDS011;4746;35.664;139.738;2024-03-25T04:02:28;30.03;;;27.17;;
9413;SDS011;4746;35.664;139.738;2024-03-25T04:04:55;29.77;;;26.97;;
9413;SDS011;4746;35.664;139.738;2024-03-25T04:07:23;29.77;;;26.83;;
9413;SDS011;4746;35.664;139.738;2024-03-25T04:09:54;28.77;;;25.83;;
9413;SDS011;4746;35.664;139.738;2024-03-25T04:12:25;28.27;;;25.37;;
9413;SDS011;4746;35.664;139.738;2024-03-25T04:14:52;29.17;;;26.37;;
9413;SDS011;4746;35.664;139.738;2024-03-25T04:17:23;28.40;;;25.80;;
9413;SDS011;4746;35.664;139.738;2024-03-25T04:19:51;28.00;;;25.20;;
9413;SDS011;4746;35.664;139.738;2024-03-25T04:22:19;25.53;;;23.13;;
9413;SDS011;4746;35.664;139.738;2024-03-25T04:24:46;25.53;;;23.13;;
9413;SDS011;4746;35.664;139.738;2024-03-25T04:27:14;23.60;;;21.40;;
9413;SDS011;4746;35.664;139.738;2024-03-25T04:29:41;26.43;;;23.67;;
9413;SDS011;4746;35.664;139.738;2024-03-25T04:32:09;24.00;;;21.73;;
9413;SDS011;4746;35.664;139.738;2024-03-25T04:34:37;24.27;;;21.87;;
9413;SDS011;4746;35.664;139.738;2024-03-25T04:37:04;23.37;;;21.20;;
9413;SDS011;4746;35.664;139.738;2024-03-25T04:39:32;21.57;;;19.57;;
9413;SDS011;4746;35.664;139.738;2024-03-25T04:41:59;23.87;;;21.60;;
9413;SDS011;4746;35.664;139.738;2024-03-25T04:44:28;22.60;;;20.50;;
9413;SDS011;4746;35.664;139.738;2024-03-25T04:46:56;22.80;;;20.70;;
9413;SDS011;4746;35.664;139.738;2024-03-25T04:49:23;24.03;;;21.83;;
9413;SDS011;4746;35.664;139.738;2024-03-25T04:51:51;24.63;;;22.23;;
9413;SDS011;4746;35.664;139.738;2024-03-25T04:54:19;25.50;;;22.97;;
9413;SDS011;4746;35.664;139.738;2024-03-25T04:56:47;24.30;;;22.00;;
9413;SDS011;4746;35.664;139.738;2024-03-25T04:59:14;23.63;;;21.53;;
9413;SDS011;4746;35.664;139.738;2024-03-25T05:01:42;26.27;;;23.70;;
9413;SDS011;4746;35.664;139.738;2024-03-25T05:04:09;26.73;;;24.13;;
9413;SDS011;4746;35.664;139.738;2024-03-25T05:06:37;24.77;;;22.40;;
9413;SDS011;4746;35.664;139.738;2024-03-25T05:09:04;25.87;;;23.40;;
9413;SDS011;4746;35.664;139.738;2024-03-25T05:11:32;26.13;;;23.63;;
9413;SDS011;4746;35.664;139.738;2024-03-25T05:14:00;26.70;;;24.10;;
9413;SDS011;4746;35.664;139.738;2024-03-25T05:16:28;26.97;;;24.37;;
9413;SDS011;4746;35.664;139.738;2024-03-25T05:18:56;28.23;;;25.63;;
9413;SDS011;4746;35.664;139.738;2024-03-25T05:21:25;28.67;;;25.87;;
9413;SDS011;4746;35.664;139.738;2024-03-25T05:23:53;28.40;;;25.67;;
9413;SDS011;4746;35.664;139.738;2024-03-25T05:26:21;28.10;;;25.40;;
9413;SDS011;4746;35.664;139.738;2024-03-25T05:28:55;29.47;;;26.67;;
9413;SDS011;4746;35.664;139.738;2024-03-25T05:31:23;29.70;;;26.70;;
9413;SDS011;4746;35.664;139.738;2024-03-25T05:33:51;27.87;;;25.27;;
9413;SDS011;4746;35.664;139.738;2024-03-25T05:36:18;30.90;;;27.90;;
9413;SDS011;4746;35.664;139.738;2024-03-25T05:38:46;30.30;;;27.40;;
9413;SDS011;4746;35.664;139.738;2024-03-25T05:41:13;30.50;;;27.70;;
9413;SDS011;4746;35.664;139.738;2024-03-25T05:43:41;30.17;;;27.30;;
9413;SDS011;4746;35.664;139.738;2024-03-25T05:46:08;32.40;;;29.20;;
9413;SDS011;4746;35.664;139.738;2024-03-25T05:48:36;29.20;;;26.57;;
9413;SDS011;4746;35.664;139.738;2024-03-25T05:51:05;30.30;;;27.50;;
9413;SDS011;4746;35.664;139.738;2024-03-25T05:53:36;31.07;;;28.10;;
9413;SDS011;4746;35.664;139.738;2024-03-25T05:56:07;31.87;;;28.73;;
9413;SDS011;4746;35.664;139.738;2024-03-25T05:58:37;33.30;;;29.97;;
9413;SDS011;4746;35.664;139.738;2024-03-25T06:01:04;33.23;;;30.03;;
9413;SDS011;4746;35.664;139.738;2024-03-25T06:03:32;32.40;;;29.20;;
9413;SDS011;4746;35.664;139.738;2024-03-25T06:06:00;34.07;;;30.93;;
9413;SDS011;4746;35.664;139.738;2024-03-25T06:08:29;30.50;;;27.60;;
9413;SDS011;4746;35.664;139.738;2024-03-25T06:11:00;32.90;;;29.67;;
9413;SDS011;4746;35.664;139.738;2024-03-25T06:13:28;32.47;;;29.30;;
9413;SDS011;4746;35.664;139.738;2024-03-25T06:15:56;31.27;;;28.10;;
9413;SDS011;4746;35.664;139.738;2024-03-25T06:18:24;32.17;;;29.17;;
9413;SDS011;4746;35.664;139.738;2024-03-25T06:20:53;33.17;;;29.97;;
9413;SDS011;4746;35.664;139.738;2024-03-25T06:23:25;31.10;;;28.00;;
9413;SDS011;4746;35.664;139.738;2024-03-25T06:25:56;31.63;;;28.60;;
9413;SDS011;4746;35.664;139.738;2024-03-25T06:28:24;31.97;;;28.73;;
9413;SDS011;4746;35.664;139.738;2024-03-25T06:30:52;31.50;;;28.23;;
9413;SDS011;4746;35.664;139.738;2024-03-25T06:33:37;32.80;;;29.73;;
9413;SDS011;4746;35.664;139.738;2024-03-25T06:36:31;31.03;;;28.10;;
9413;SDS011;4746;35.664;139.738;2024-03-25T06:39:00;33.30;;;30.20;;
9413;SDS011;4746;35.664;139.738;2024-03-25T06:41:28;32.67;;;29.37;;
9413;SDS011;4746;35.664;139.738;2024-03-25T06:44:01;32.00;;;29.00;;
9413;SDS011;4746;35.664;139.738;2024-03-25T06:46:30;28.33;;;25.77;;
9413;SDS011;4746;35.664;139.738;2024-03-25T06:49:00;29.73;;;26.90;;
9413;SDS011;4746;35.664;139.738;2024-03-25T06:51:28;30.13;;;27.20;;
9413;SDS011;4746;35.664;139.738;2024-03-25T06:54:02;29.63;;;26.73;;
9413;SDS011;4746;35.664;139.738;2024-03-25T06:56:31;29.43;;;26.67;;
9413;SDS011;4746;35.664;139.738;2024-03-25T06:59:03;28.90;;;26.00;;
9413;SDS011;4746;35.664;139.738;2024-03-25T07:01:32;28.03;;;25.30;;
9413;SDS011;4746;35.664;139.738;2024-03-25T07:03:59;28.43;;;25.53;;
9413;SDS011;4746;35.664;139.738;2024-03-25T07:06:30;27.33;;;24.63;;
9413;SDS011;4746;35.664;139.738;2024-03-25T07:08:57;25.63;;;23.33;;
9413;SDS011;4746;35.664;139.738;2024-03-25T07:11:27;28.40;;;25.90;;
9413;SDS011;4746;35.664;139.738;2024-03-25T07:13:54;27.17;;;24.57;;
9413;SDS011;4746;35.664;139.738;2024-03-25T07:16:28;27.07;;;24.40;;
9413;SDS011;4746;35.664;139.738;2024-03-25T07:18:57;25.93;;;23.43;;
9413;SDS011;4746;35.664;139.738;2024-03-25T07:21:24;26.80;;;24.40;;
9413;SDS011;4746;35.664;139.738;2024-03-25T07:23:52;26.87;;;24.20;;
9413;SDS011;4746;35.664;139.738;2024-03-25T07:26:19;28.33;;;25.33;;
9413;SDS011;4746;35.664;139.738;2024-03-25T07:28:49;27.23;;;24.60;;
9413;SDS011;4746;35.664;139.738;2024-03-25T07:31:17;28.07;;;25.47;;
9413;SDS011;4746;35.664;139.738;2024-03-25T07:33:44;29.60;;;26.63;;
9413;SDS011;4746;35.664;139.738;2024-03-25T07:36:11;26.63;;;24.23;;
9413;SDS011;4746;35.664;139.738;2024-03-25T07:38:42;25.93;;;23.53;;
9413;SDS011;4746;35.664;139.738;2024-03-25T07:41:10;27.00;;;24.50;;
9413;SDS011;4746;35.664;139.738;2024-03-25T07:43:41;27.10;;;24.47;;
9413;SDS011;4746;35.664;139.738;2024-03-25T07:46:09;28.60;;;25.80;;
9413;SDS011;4746;35.664;139.738;2024-03-25T07:48:38;28.00;;;25.47;;
9413;SDS011;4746;35.664;139.738;2024-03-25T07:51:07;29.53;;;26.63;;
9413;SDS011;4746;35.664;139.738;2024-03-25T07:53:35;28.40;;;25.50;;
9413;SDS011;4746;35.664;139.738;2024-03-25T07:56:04;28.23;;;25.50;;
9413;SDS011;4746;35.664;139.738;2024-03-25T07:58:35;29.63;;;26.73;;
9413;SDS011;4746;35.664;139.738;2024-03-25T08:01:02;27.57;;;25.07;;
9413;SDS011;4746;35.664;139.738;2024-03-25T08:03:32;28.97;;;26.17;;
9413;SDS011;4746;35.664;139.738;2024-03-25T08:06:00;28.17;;;25.33;;
9413;SDS011;4746;35.664;139.738;2024-03-25T08:08:30;27.47;;;24.73;;
9413;SDS011;4746;35.664;139.738;2024-03-25T08:10:57;28.50;;;25.60;;
9413;SDS011;4746;35.664;139.738;2024-03-25T08:13:25;31.03;;;27.87;;
9413;SDS011;4746;35.664;139.738;2024-03-25T08:15:54;31.50;;;28.40;;
9413;SDS011;4746;35.664;139.738;2024-03-25T08:18:22;29.90;;;26.90;;
9413;SDS011;4746;35.664;139.738;2024-03-25T08:20:50;30.17;;;27.10;;
9413;SDS011;4746;35.664;139.738;2024-03-25T08:23:17;31.00;;;28.03;;
9413;SDS011;4746;35.664;139.738;2024-03-25T08:25:45;30.63;;;27.70;;
9413;SDS011;4746;35.664;139.738;2024-03-25T08:28:12;30.47;;;27.67;;
9413;SDS011;4746;35.664;139.738;2024-03-25T08:30:42;29.37;;;26.30;;
9413;SDS011;4746;35.664;139.738;2024-03-25T08:33:13;30.40;;;27.27;;
9413;SDS011;4746;35.664;139.738;2024-03-25T08:35:40;31.50;;;28.20;;
9413;SDS011;4746;35.664;139.738;2024-03-25T08:38:10;31.53;;;28.37;;
9413;SDS011;4746;35.664;139.738;2024-03-25T08:40:38;32.27;;;29.07;;
9413;SDS011;4746;35.664;139.738;2024-03-25T08:43:06;33.33;;;30.10;;
9413;SDS011;4746;35.664;139.738;2024-03-25T08:45:33;33.97;;;30.37;;
9413;SDS011;4746;35.664;139.738;2024-03-25T08:48:01;34.27;;;30.77;;
9413;SDS011;4746;35.664;139.738;2024-03-25T08:50:28;34.37;;;30.97;;
9413;SDS011;4746;35.664;139.738;2024-03-25T08:52:56;34.63;;;31.20;;
9413;SDS011;4746;35.664;139.738;2024-03-25T08:55:23;33.10;;;29.80;;
9413;SDS011;4746;35.664;139.738;2024-03-25T08:57:52;28.77;;;25.97;;
9413;SDS011;4746;35.664;139.738;2024-03-25T09:00:20;32.57;;;29.20;;
9413;SDS011;4746;35.664;139.738;2024-03-25T09:02:49;30.63;;;27.50;;
9413;SDS011;4746;35.664;139.738;2024-03-25T09:05:21;29.40;;;26.67;;
9413;SDS011;4746;35.664;139.738;2024-03-25T09:07:51;30.40;;;27.23;;
9413;SDS011;4746;35.664;139.738;2024-03-25T09:10:19;28.87;;;26.23;;
9413;SDS011;4746;35.664;139.738;2024-03-25T09:13:05;29.70;;;26.83;;
9413;SDS011;4746;35.664;139.738;2024-03-25T09:15:33;30.83;;;27.90;;
9413;SDS011;4746;35.664;139.738;2024-03-25T09:18:01;28.63;;;25.80;;
9413;SDS011;4746;35.664;139.738;2024-03-25T09:20:29;28.07;;;25.37;;
9413;SDS011;4746;35.664;139.738;2024-03-25T09:22:56;30.10;;;27.10;;
9413;SDS011;4746;35.664;139.738;2024-03-25T09:25:24;31.03;;;28.00;;
9413;SDS011;4746;35.664;139.738;2024-03-25T09:27:51;29.80;;;26.90;;
9413;SDS011;4746;35.664;139.738;2024-03-25T09:30:19;31.37;;;28.40;;
9413;SDS011;4746;35.664;139.738;2024-03-25T09:32:48;30.80;;;27.50;;
9413;SDS011;4746;35.664;139.738;2024-03-25T09:35:16;31.13;;;28.03;;
9413;SDS011;4746;35.664;139.738;2024-03-25T09:37:44;28.67;;;25.93;;
9413;SDS011;4746;35.664;139.738;2024-03-25T09:40:11;28.87;;;25.97;;
9413;SDS011;4746;35.664;139.738;2024-03-25T09:42:46;29.17;;;26.17;;
9413;SDS011;4746;35.664;139.738;2024-03-25T09:45:18;27.60;;;24.93;;
9413;SDS011;4746;35.664;139.738;2024-03-25T09:47:51;27.60;;;24.87;;
9413;SDS011;4746;35.664;139.738;2024-03-25T09:50:20;25.93;;;23.43;;
9413;SDS011;4746;35.664;139.738;2024-03-25T09:52:49;25.77;;;23.40;;
9413;SDS011;4746;35.664;139.738;2024-03-25T09:55:17;25.27;;;22.97;;
9413;SDS011;4746;35.664;139.738;2024-03-25T09:57:45;25.17;;;22.57;;
9413;SDS011;4746;35.664;139.738;2024-03-25T10:00:13;25.33;;;22.83;;
9413;SDS011;4746;35.664;139.738;2024-03-25T10:02:41;23.73;;;21.43;;
9413;SDS011;4746;35.664;139.738;2024-03-25T10:05:09;22.57;;;20.37;;
9413;SDS011;4746;35.664;139.738;2024-03-25T10:07:37;23.17;;;20.93;;
9413;SDS011;4746;35.664;139.738;2024-03-25T10:10:05;25.47;;;22.50;;
9413;SDS011;4746;35.664;139.738;2024-03-25T10:12:35;24.17;;;21.77;;
9413;SDS011;4746;35.664;139.738;2024-03-25T10:15:03;23.97;;;21.47;;
9413;SDS011;4746;35.664;139.738;2024-03-25T10:17:31;23.73;;;21.60;;
9413;SDS011;4746;35.664;139.738;2024-03-25T10:19:59;23.80;;;21.60;;
9413;SDS011;4746;35.664;139.738;2024-03-25T10:22:28;23.63;;;21.43;;
9413;SDS011;4746;35.664;139.738;2024-03-25T10:24:56;23.63;;;21.43;;
9413;SDS011;4746;35.664;139.738;2024-03-25T10:27:24;24.07;;;21.73;;
9413;SDS011;4746;35.664;139.738;2024-03-25T10:29:52;24.20;;;21.80;;
9413;SDS011;4746;35.664;139.738;2024-03-25T10:32:23;26.13;;;23.37;;
9413;SDS011;4746;35.664;139.738;2024-03-25T10:34:54;21.63;;;19.50;;
9413;SDS011;4746;35.664;139.738;2024-03-25T10:37:22;23.43;;;21.33;;
9413;SDS011;4746;35.664;139.738;2024-03-25T10:39:54;27.53;;;24.83;;
9413;SDS011;4746;35.664;139.738;2024-03-25T10:42:30;24.90;;;22.50;;
9413;SDS011;4746;35.664;139.738;2024-03-25T10:45:00;27.63;;;24.93;;
9413;SDS011;4746;35.664;139.738;2024-03-25T10:47:29;26.67;;;24.17;;
9413;SDS011;4746;35.664;139.738;2024-03-25T10:49:58;25.67;;;23.00;;
9413;SDS011;4746;35.664;139.738;2024-03-25T10:52:36;25.60;;;23.20;;
9413;SDS011;4746;35.664;139.738;2024-03-25T10:55:05;25.93;;;23.43;;
9413;SDS011;4746;35.664;139.738;2024-03-25T10:57:35;27.83;;;24.40;;
9413;SDS011;4746;35.664;139.738;2024-03-25T11:00:04;27.17;;;24.43;;
9413;SDS011;4746;35.664;139.738;2024-03-25T11:02:33;26.27;;;23.77;;
9413;SDS011;4746;35.664;139.738;2024-03-25T11:05:01;25.33;;;22.73;;
9413;SDS011;4746;35.664;139.738;2024-03-25T11:07:32;24.43;;;22.13;;
9413;SDS011;4746;35.664;139.738;2024-03-25T11:10:05;25.57;;;23.17;;
9413;SDS011;4746;35.664;139.738;2024-03-25T11:12:35;24.57;;;22.13;;
9413;SDS011;4746;35.664;139.738;2024-03-25T11:15:06;24.67;;;22.20;;
9413;SDS011;4746;35.664;139.738;2024-03-25T11:17:35;25.10;;;22.73;;
9413;SDS011;4746;35.664;139.738;2024-03-25T11:20:15;24.00;;;21.57;;
9413;SDS011;4746;35.664;139.738;2024-03-25T11:22:49;23.30;;;21.10;;
9413;SDS011;4746;35.664;139.738;2024-03-25T11:25:20;25.40;;;23.00;;
9413;SDS011;4746;35.664;139.738;2024-03-25T11:27:48;21.50;;;19.37;;
9413;SDS011;4746;35.664;139.738;2024-03-25T11:30:16;22.00;;;19.90;;
9413;SDS011;4746;35.664;139.738;2024-03-25T11:32:45;22.83;;;20.50;;
9413;SDS011;4746;35.664;139.738;2024-03-25T11:35:18;21.27;;;19.17;;
9413;SDS011;4746;35.664;139.738;2024-03-25T11:37:47;18.37;;;16.43;;
9413;SDS011;4746;35.664;139.738;2024-03-25T11:40:15;19.50;;;17.57;;
9413;SDS011;4746;35.664;139.738;2024-03-25T11:42:44;18.33;;;16.43;;
9413;SDS011;4746;35.664;139.738;2024-03-25T11:45:16;18.37;;;16.67;;
9413;SDS011;4746;35.664;139.738;2024-03-25T11:47:47;19.60;;;17.60;;
9413;SDS011;4746;35.664;139.738;2024-03-25T11:50:17;19.83;;;17.73;;
9413;SDS011;4746;35.664;139.738;2024-03-25T11:52:46;22.23;;;20.00;;
9413;SDS011;4746;35.664;139.738;2024-03-25T11:55:17;25.90;;;23.50;;
9413;SDS011;4746;35.664;139.738;2024-03-25T11:57:45;25.53;;;23.10;;
9413;SDS011;4746;35.664;139.738;2024-03-25T12:00:20;27.40;;;24.60;;
9413;SDS011;4746;35.664;139.738;2024-03-25T12:02:47;27.33;;;24.53;;
9413;SDS011;4746;35.664;139.738;2024-03-25T12:05:15;29.90;;;26.80;;
9413;SDS011;4746;35.664;139.738;2024-03-25T12:07:43;29.93;;;26.90;;
9413;SDS011;4746;35.664;139.738;2024-03-25T12:10:10;28.03;;;25.23;;
9413;SDS011;4746;35.664;139.738;2024-03-25T12:12:56;24.53;;;22.23;;
9413;SDS011;4746;35.664;139.738;2024-03-25T12:15:23;27.57;;;24.80;;
9413;SDS011;4746;35.664;139.738;2024-03-25T12:17:52;34.27;;;30.63;;
9413;SDS011;4746;35.664;139.738;2024-03-25T12:20:20;33.63;;;30.17;;
9413;SDS011;4746;35.664;139.738;2024-03-25T12:22:48;34.80;;;31.40;;
9413;SDS011;4746;35.664;139.738;2024-03-25T12:25:16;33.10;;;29.57;;
9413;SDS011;4746;35.664;139.738;2024-03-25T12:27:46;28.20;;;25.20;;
9413;SDS011;4746;35.664;139.738;2024-03-25T12:30:14;25.50;;;22.93;;
9413;SDS011;4746;35.664;139.738;2024-03-25T12:32:45;26.23;;;23.63;;
9413;SDS011;4746;35.664;139.738;2024-03-25T12:35:15;23.50;;;21.23;;
9413;SDS011;4746;35.664;139.738;2024-03-25T12:37:45;24.93;;;22.23;;
9413;SDS011;4746;35.664;139.738;2024-03-25T12:40:26;24.30;;;21.97;;
9413;SDS011;4746;35.664;139.738;2024-03-25T12:42:57;20.10;;;18.17;;
9413;SDS011;4746;35.664;139.738;2024-03-25T12:45:25;21.67;;;19.57;;
9413;SDS011;4746;35.664;139.738;2024-03-25T12:47:54;24.60;;;21.90;;
9413;SDS011;4746;35.664;139.738;2024-03-25T12:50:23;24.27;;;21.77;;
9413;SDS011;4746;35.664;139.738;2024-03-25T12:52:50;29.67;;;26.73;;
9413;SDS011;4746;35.664;139.738;2024-03-25T12:55:18;37.00;;;33.30;;
9413;SDS011;4746;35.664;139.738;2024-03-25T12:57:45;32.67;;;29.27;;
9413;SDS011;4746;35.664;139.738;2024-03-25T13:00:13;33.83;;;30.50;;
9413;SDS011;4746;35.664;139.738;2024-03-25T13:02:41;32.30;;;28.43;;
9413;SDS011;4746;35.664;139.738;2024-03-25T13:05:09;30.37;;;27.33;;
9413;SDS011;4746;35.664;139.738;2024-03-25T13:07:37;35.47;;;31.80;;
9413;SDS011;4746;35.664;139.738;2024-03-25T13:10:05;32.37;;;29.13;;
9413;SDS011;4746;35.664;139.738;2024-03-25T13:12:33;34.70;;;31.13;;
9413;SDS011;4746;35.664;139.738;2024-03-25T13:15:03;35.77;;;32.23;;
9413;SDS011;4746;35.664;139.738;2024-03-25T13:17:32;35.77;;;32.10;;
9413;SDS011;4746;35.664;139.738;2024-03-25T13:19:59;35.83;;;32.20;;
9413;SDS011;4746;35.664;139.738;2024-03-25T13:22:27;36.00;;;32.10;;
9413;SDS011;4746;35.664;139.738;2024-03-25T13:24:56;36.77;;;32.93;;
9413;SDS011;4746;35.664;139.738;2024-03-25T13:27:27;37.83;;;33.63;;
9413;SDS011;4746;35.664;139.738;2024-03-25T13:29:55;37.77;;;33.87;;
9413;SDS011;4746;35.664;139.738;2024-03-25T13:32:23;35.47;;;31.63;;
9413;SDS011;4746;35.664;139.738;2024-03-25T13:34:51;37.13;;;33.33;;
9413;SDS011;4746;35.664;139.738;2024-03-25T13:37:18;36.50;;;32.80;;
9413;SDS011;4746;35.664;139.738;2024-03-25T13:39:46;37.20;;;33.20;;
9413;SDS011;4746;35.664;139.738;2024-03-25T13:42:16;37.70;;;33.80;;
9413;SDS011;4746;35.664;139.738;2024-03-25T13:44:44;35.90;;;32.20;;
9413;SDS011;4746;35.664;139.738;2024-03-25T13:47:11;33.97;;;30.57;;
9413;SDS011;4746;35.664;139.738;2024-03-25T13:49:39;31.30;;;28.10;;
9413;SDS011;4746;35.664;139.738;2024-03-25T13:52:06;31.33;;;27.90;;
9413;SDS011;4746;35.664;139.738;2024-03-25T13:54:34;32.20;;;28.93;;
9413;SDS011;4746;35.664;139.738;2024-03-25T13:57:01;32.57;;;29.30;;
9413;SDS011;4746;35.664;139.738;2024-03-25T13:59:29;33.07;;;29.73;;
9413;SDS011;4746;35.664;139.738;2024-03-25T14:01:57;34.23;;;30.73;;
9413;SDS011;4746;35.664;139.738;2024-03-25T14:04:25;33.77;;;30.27;;
9413;SDS011;4746;35.664;139.738;2024-03-25T14:06:52;34.60;;;30.97;;
9413;SDS011;4746;35.664;139.738;2024-03-25T14:09:24;33.20;;;30.10;;
9413;SDS011;4746;35.664;139.738;2024-03-25T14:11:52;35.40;;;31.77;;
9413;SDS011;4746;35.664;139.738;2024-03-25T14:14:20;33.33;;;29.83;;
9413;SDS011;4746;35.664;139.738;2024-03-25T14:16:47;34.23;;;30.73;;
9413;SDS011;4746;35.664;139.738;2024-03-25T14:19:15;33.97;;;30.57;;
9413;SDS011;4746;35.664;139.738;2024-03-25T14:21:43;33.37;;;30.03;;
9413;SDS011;4746;35.664;139.738;2024-03-25T14:24:11;34.80;;;31.50;;
9413;SDS011;4746;35.664;139.738;2024-03-25T14:26:38;34.10;;;30.60;;
9413;SDS011;4746;35.664;139.738;2024-03-25T14:29:06;34.27;;;30.57;;